createdAt,value
2019-04-05T00:01:59.844Z,31.50
2019-04-05T00:07:06.048Z,31.60
2019-04-05T00:12:12.097Z,31.60
2019-04-05T00:17:17.722Z,31.80
2019-04-05T00:22:23.801Z,31.80
2019-04-05T00:27:29.995Z,31.80
2019-04-05T00:32:35.737Z,31.90
2019-04-05T00:37:41.560Z,31.90
2019-04-05T00:42:47.176Z,32.10
2019-04-05T00:47:53.849Z,32.10
2019-04-05T00:52:59.620Z,32.80
2019-04-05T00:58:05.589Z,32.10
2019-04-05T01:03:13.726Z,32.40
2019-04-05T01:08:19.769Z,32.20
2019-04-05T01:13:26.181Z,33.00
2019-04-05T01:18:31.818Z,32.40
2019-04-05T01:23:37.789Z,32.40
2019-04-05T01:28:44.599Z,32.50
2019-04-05T01:33:50.677Z,32.50
2019-04-05T01:38:56.347Z,32.50
2019-04-05T01:44:02.378Z,32.60
2019-04-05T01:49:08.262Z,32.60
2019-04-05T01:54:14.163Z,32.50
2019-04-05T01:59:19.990Z,32.60
2019-04-05T02:04:26.044Z,33.40
2019-04-05T02:09:32.208Z,32.60
2019-04-05T02:14:38.067Z,32.70
2019-04-05T02:19:43.791Z,32.80
2019-04-05T02:24:49.370Z,33.00
2019-04-05T02:29:55.458Z,33.50
2019-04-05T02:35:01.381Z,33.00
2019-04-05T02:40:11.773Z,33.70
2019-04-05T02:45:19.031Z,33.10
2019-04-05T02:50:28.112Z,33.10
2019-04-05T02:55:35.735Z,33.20
2019-04-05T03:00:42.025Z,33.20
2019-04-05T03:05:48.262Z,33.30
2019-04-05T03:11:06.654Z,33.30
2019-04-05T03:16:17.542Z,33.40
2019-04-05T03:21:26.513Z,33.50
2019-04-05T03:26:35.241Z,33.60
2019-04-05T03:31:41.575Z,33.60
2019-04-05T03:36:51.461Z,33.60
2019-04-05T03:41:56.566Z,33.70
2019-04-05T03:47:02.946Z,33.60
2019-04-05T03:52:09.441Z,33.60
2019-04-05T03:57:16.301Z,33.60
2019-04-05T04:02:23.673Z,33.60
2019-04-05T04:07:29.903Z,33.60
2019-04-05T04:12:36.096Z,33.70
2019-04-05T04:17:43.229Z,33.60
2019-04-05T04:22:49.222Z,33.60
2019-04-05T04:27:54.966Z,33.70
2019-04-05T04:33:01.978Z,33.70
2019-04-05T04:38:28.031Z,33.90
2019-04-05T04:43:33.988Z,33.80
2019-04-05T04:48:41.012Z,33.80
2019-04-05T04:53:58.241Z,33.90
2019-04-05T04:59:04.163Z,33.90
2019-04-05T05:04:10.363Z,34.60
2019-04-05T05:09:16.758Z,34.00
2019-04-05T05:14:23.267Z,37.60
2019-04-05T05:19:29.576Z,36.90
2019-04-05T05:24:35.846Z,36.10
2019-04-05T05:29:41.812Z,35.30
2019-04-05T05:34:47.638Z,36.30
2019-04-05T05:39:53.381Z,37.80
2019-04-05T05:44:59.123Z,37.20
2019-04-05T05:50:05.352Z,35.90
2019-04-05T05:55:12.974Z,34.70
2019-04-05T06:00:20.197Z,33.80
2019-04-05T06:05:25.877Z,33.20
2019-04-05T06:10:31.704Z,32.80
2019-04-05T06:15:37.782Z,32.70
2019-04-05T06:20:44.329Z,32.60
2019-04-05T06:25:50.094Z,32.60
2019-04-05T06:30:55.840Z,32.60
2019-04-05T06:36:01.909Z,32.70
2019-04-05T06:41:07.812Z,32.90
2019-04-05T06:46:13.414Z,33.70
2019-04-05T06:51:19.493Z,33.00
2019-04-05T06:56:25.533Z,33.10
2019-04-05T07:01:31.645Z,33.20
2019-04-05T07:06:37.467Z,33.30
2019-04-05T07:11:43.273Z,33.30
2019-04-05T07:16:49.355Z,33.40
2019-04-05T07:21:55.201Z,33.60
2019-04-05T07:27:01.077Z,33.60
2019-04-05T07:32:06.950Z,33.80
2019-04-05T07:37:12.817Z,33.80
2019-04-05T07:42:19.235Z,33.90
2019-04-05T07:47:25.282Z,33.90
2019-04-05T07:52:31.221Z,33.90
2019-04-05T07:57:37.957Z,33.80
2019-04-05T08:02:43.789Z,33.90
2019-04-05T08:07:51.491Z,34.00
2019-04-05T08:12:57.974Z,34.00
2019-04-05T08:18:05.867Z,34.10
2019-04-05T08:23:12.673Z,34.00
2019-04-05T08:28:19.900Z,33.90
2019-04-05T08:33:26.547Z,33.80
2019-04-05T08:38:32.049Z,33.70
2019-04-05T08:43:37.674Z,33.70
2019-04-05T08:48:43.854Z,33.60
2019-04-05T08:53:49.692Z,33.60
2019-04-05T08:58:55.508Z,33.60
2019-04-05T09:04:01.689Z,33.60
2019-04-05T09:09:09.997Z,33.40
2019-04-05T09:14:16.008Z,33.30
2019-04-05T09:19:24.181Z,35.20
2019-04-05T09:24:31.117Z,36.20
2019-04-05T09:29:36.994Z,36.30
2019-04-05T09:34:42.610Z,36.30
2019-04-05T09:39:48.389Z,35.70
2019-04-05T09:44:54.061Z,35.50
2019-04-05T09:49:59.782Z,35.00
2019-04-05T09:55:05.701Z,34.40
2019-04-05T10:00:17.598Z,33.70
2019-04-05T10:05:23.414Z,32.70
2019-04-05T10:10:29.302Z,32.60
2019-04-05T10:15:34.960Z,31.90
2019-04-05T10:20:41.122Z,31.10
2019-04-05T10:25:47.256Z,30.70
2019-04-05T10:30:54.656Z,30.20
2019-04-05T10:36:01.659Z,30.50
2019-04-05T10:41:07.685Z,29.10
2019-04-05T10:46:13.658Z,28.90
2019-04-05T10:51:19.493Z,28.50
2019-04-05T10:56:25.307Z,28.40
2019-04-05T11:01:31.176Z,28.30
2019-04-05T11:06:37.192Z,28.20
2019-04-05T11:11:43.169Z,28.10
2019-04-05T11:16:58.331Z,28.10
2019-04-05T11:21:58.336Z,28.10
2019-04-05T11:27:06.539Z,28.20
2019-04-05T11:32:11.651Z,28.30
2019-04-05T11:37:19.072Z,28.50
2019-04-05T11:42:27.570Z,28.70
2019-04-05T11:47:34.040Z,28.70
2019-04-05T11:52:39.880Z,28.60
2019-04-05T11:57:45.719Z,28.40
2019-04-05T12:02:56.498Z,28.40
2019-04-05T12:08:02.229Z,28.40
2019-04-05T12:13:08.377Z,28.30
2019-04-05T12:18:17.875Z,28.40
2019-04-05T12:23:21.618Z,28.30
2019-04-05T12:28:27.392Z,28.80
2019-04-05T12:33:33.138Z,28.20
2019-04-05T12:38:38.953Z,28.10
2019-04-05T12:43:44.881Z,28.20
2019-04-05T12:48:52.597Z,28.40
2019-04-05T12:53:58.505Z,29.40
2019-04-05T12:59:04.269Z,28.80
2019-04-05T13:04:10.316Z,29.20
2019-04-05T13:09:16.106Z,29.90
2019-04-05T13:14:22.056Z,29.10
2019-04-05T13:19:28.507Z,28.90
2019-04-05T13:24:35.347Z,29.50
2019-04-05T13:29:41.276Z,28.90
2019-04-05T13:34:47.024Z,29.20
2019-04-05T13:39:52.747Z,29.50
2019-04-05T13:44:58.801Z,29.20
2019-04-05T13:50:05.135Z,29.20
2019-04-05T13:55:11.507Z,29.10
2019-04-05T14:00:18.537Z,29.50
2019-04-05T14:05:24.449Z,29.80
2019-04-05T14:10:30.624Z,30.00
2019-04-05T14:15:36.368Z,30.10
2019-04-05T14:20:42.247Z,30.20
2019-04-05T14:25:48.185Z,30.80
2019-04-05T14:30:54.027Z,31.20
2019-04-05T14:35:59.724Z,31.30
2019-04-05T14:41:05.403Z,31.60
2019-04-05T14:46:11.258Z,31.50
2019-04-05T14:51:17.237Z,31.80
2019-04-05T14:56:23.053Z,32.10
2019-04-05T15:01:30.713Z,32.50
2019-04-05T15:06:36.826Z,32.50
2019-04-05T15:11:42.735Z,33.60
2019-04-05T15:16:48.247Z,33.30
2019-04-05T15:22:05.047Z,33.70
2019-04-05T15:27:02.784Z,34.70
2019-04-05T15:32:08.732Z,34.30
2019-04-05T15:37:16.146Z,34.70
2019-04-05T15:42:22.210Z,34.90
2019-04-05T15:47:27.973Z,35.30
2019-04-05T15:52:33.679Z,35.30
2019-04-05T15:57:39.650Z,35.70
2019-04-05T16:02:47.252Z,35.90
2019-04-05T16:07:53.578Z,36.00
2019-04-05T16:12:59.487Z,36.20
2019-04-05T16:18:05.352Z,36.40
2019-04-05T16:23:11.535Z,36.60
2019-04-05T16:28:18.911Z,36.70
2019-04-05T16:33:24.896Z,36.90
2019-04-05T16:38:30.829Z,37.20
2019-04-05T16:43:36.627Z,37.40
2019-04-05T16:48:42.505Z,37.30
2019-04-05T16:54:01.480Z,37.60
2019-04-05T16:59:08.829Z,38.10
2019-04-05T17:04:14.905Z,38.10
2019-04-05T17:09:20.633Z,38.20
2019-04-05T17:14:26.404Z,38.50
2019-04-05T17:19:32.021Z,38.60
2019-04-05T17:24:39.160Z,38.60
2019-04-05T17:29:45.263Z,38.50
2019-04-05T17:34:51.321Z,38.50
2019-04-05T17:39:57.089Z,38.70
2019-04-05T17:45:03.016Z,39.10
2019-04-05T17:50:11.063Z,38.90
2019-04-05T17:55:16.977Z,39.00
2019-04-05T18:00:23.928Z,39.10
2019-04-05T18:05:29.519Z,39.20
2019-04-05T18:10:35.559Z,39.40
2019-04-05T18:15:51.804Z,39.40
2019-04-05T18:20:48.785Z,39.50
2019-04-05T18:25:57.644Z,39.70
2019-04-05T18:31:03.398Z,39.80
2019-04-05T18:36:10.614Z,39.90
2019-04-05T18:41:17.833Z,40.80
2019-04-05T18:46:23.689Z,40.40
2019-04-05T18:51:29.664Z,43.30
2019-04-05T18:56:35.747Z,44.40
2019-04-05T19:01:41.626Z,43.50
2019-04-05T19:06:47.693Z,42.20
2019-04-05T19:11:53.178Z,41.40
2019-04-05T19:16:59.369Z,40.80
2019-04-05T19:22:06.406Z,40.60
2019-04-05T19:27:12.390Z,40.40
2019-04-05T19:52:48.397Z,41.10
2019-04-05T19:57:54.365Z,40.70
2019-04-05T20:03:00.452Z,40.80
2019-04-05T20:08:06.370Z,40.80
2019-04-05T20:13:12.396Z,41.10
2019-04-05T20:18:18.314Z,41.10
2019-04-05T20:23:24.259Z,41.20
2019-04-05T20:28:30.414Z,41.30
2019-04-05T20:33:38.148Z,41.70
2019-04-05T20:38:44.089Z,41.80
2019-04-05T20:43:49.932Z,41.90
2019-04-05T20:49:03.871Z,42.10
2019-04-05T20:54:09.941Z,42.30
2019-04-05T20:59:24.311Z,42.50
2019-04-05T21:04:32.655Z,42.60
2019-04-05T21:09:44.246Z,42.80
2019-04-05T21:14:51.882Z,42.80
2019-04-05T21:19:57.673Z,42.90
2019-04-05T21:25:03.465Z,43.00
2019-04-05T21:30:09.550Z,43.20
2019-04-05T21:35:15.398Z,43.40
2019-04-05T21:40:21.309Z,43.40
2019-04-05T21:45:26.928Z,43.50
2019-04-05T21:50:33.364Z,43.60
2019-04-05T21:55:39.094Z,44.30
2019-04-05T22:00:50.601Z,43.70
2019-04-05T22:05:58.033Z,43.70
2019-04-05T22:11:03.792Z,43.80
2019-04-05T22:16:09.718Z,44.00
2019-04-05T22:21:15.850Z,44.00
2019-04-05T22:26:21.763Z,44.10
2019-04-05T22:31:27.408Z,44.20
2019-04-05T22:36:34.196Z,44.20
2019-04-05T22:41:39.817Z,44.20
2019-04-05T22:46:45.889Z,44.40
2019-04-05T22:51:51.540Z,44.40
2019-04-05T22:56:57.386Z,44.50
2019-04-05T23:02:03.158Z,44.60
2019-04-05T23:07:10.090Z,44.70
2019-04-05T23:12:15.876Z,44.80
2019-04-05T23:17:21.655Z,44.80
2019-04-05T23:22:27.310Z,44.90
2019-04-05T23:27:32.983Z,44.90
2019-04-05T23:32:38.888Z,44.70
2019-04-05T23:37:44.678Z,44.60
2019-04-05T23:42:50.779Z,44.40
2019-04-05T23:47:57.784Z,44.40
2019-04-05T23:53:03.274Z,44.40
2019-04-05T23:58:09.077Z,44.40
